Sbi Hercules — D5KQ3 — position and weather

sailwx.info

Track history (hours):
 
Tides and Currents Weather Stations Pressure Air Temp Water Temp Dewpoint Dewpoint Depression Visibility Wind Speed Wind Dir Waves Ship Positions

Sbi Hercules

Last reported at 2018-Apr-21 00:21 UTC. Time now 2018-Apr-21 15:40 UTC.
Position N 38°28' W 010°07'.

Length 200 m; draft 10.5 m.

Type: Cargo ship. MMSI: 636017382.

Date/timePositionNaut miles runAvg speedWind from/ knotsBaromVisibWave heightAir tempDewpointWater temp
2018-Apr-21 00:21N 38°28' W 010°07'512.8
2018-Apr-20 23:56N 38°33' W 010°09'612.7
2018-Apr-20 23:29N 38°38' W 010°11'612.2
2018-Apr-20 23:00N 38°44' W 010°12'713.0
2018-Apr-20 22:30N 38°51' W 010°12'613.2
2018-Apr-20 22:00N 38°57' W 010°11'713.4
2018-Apr-20 21:30N 39°04' W 010°11'713.5
2018-Apr-20 21:00N 39°11' W 010°11'612.9
2018-Apr-20 20:30N 39°17' W 010°12'  
2018-Apr-17 22:36N 39°51' W 010°54'312.8
2018-Apr-17 22:22N 39°49' W 010°55'612.8
2018-Apr-17 21:55N 39°43' W 010°58'512.7
2018-Apr-17 21:29N 39°38' W 011°00'612.9
2018-Apr-17 21:00N 39°32' W 011°03'612.6
2018-Apr-17 20:30N 39°26' W 011°05'712.4
2018-Apr-17 19:57N 39°19' W 011°08'612.3
2018-Apr-17 19:31N 39°14' W 011°10'612.2
2018-Apr-17 19:00N 39°08' W 011°12'612.4
2018-Apr-17 18:30N 39°02' W 011°15'1312.8
2018-Apr-17 17:28N 38°50' W 011°20'60212.6
2018-Apr-15 17:34N 29°16' W 014°58'111.8
2018-Apr-15 17:30N 29°15' W 014°59'611.7
2018-Apr-15 17:00N 29°10' W 015°00'611.8
2018-Apr-15 16:30N 29°04' W 015°03'611.8
2018-Apr-15 16:00N 28°58' W 015°05'611.9
2018-Apr-15 15:30N 28°53' W 015°06'611.8
2018-Apr-15 14:57N 28°46' W 015°09'512.0
2018-Apr-15 14:30N 28°41' W 015°11'612.0
2018-Apr-15 14:00N 28°36' W 015°13'611.9
2018-Apr-15 13:30N 28°30' W 015°15'612.0
2018-Apr-15 13:00N 28°24' W 015°17'612.0
2018-Apr-15 12:30N 28°19' W 015°19'612.1
2018-Apr-15 12:00N 28°13' W 015°21'611.7
2018-Apr-15 11:31N 28°07' W 015°23'1 2.4
2018-Apr-15 10:56N 28°06' W 015°24'0 0.0
2018-Apr-15 10:26N 28°06' W 015°24'0 0.0
2018-Apr-15 09:56N 28°06' W 015°24'0 0.0
2018-Apr-15 09:26N 28°06' W 015°24'0 0.0
2018-Apr-15 08:56N 28°06' W 015°24'0 0.0
2018-Apr-15 08:26N 28°06' W 015°24'0 0.0
2018-Apr-15 07:59N 28°06' W 015°24'0 0.0
2018-Apr-15 07:29N 28°06' W 015°24'0 0.0
2018-Apr-15 06:59N 28°06' W 015°24'0 0.0
2018-Apr-15 06:29N 28°06' W 015°24'0 0.0
2018-Apr-15 05:59N 28°06' W 015°24'0 0.0
2018-Apr-15 05:14N 28°06' W 015°24'0 0.0
2018-Apr-15 04:59N 28°06' W 015°24'0 0.0
2018-Apr-15 04:29N 28°06' W 015°24'0 0.0
2018-Apr-15 03:59N 28°06' W 015°24'0 0.0
2018-Apr-15 03:29N 28°06' W 015°24'0 0.0
2018-Apr-15 02:59N 28°06' W 015°24'0 0.0
2018-Apr-15 02:29N 28°06' W 015°24'0 0.0
2018-Apr-15 01:59N 28°06' W 015°24'0 0.0
2018-Apr-15 01:29N 28°06' W 015°24'0 0.0
2018-Apr-15 00:50N 28°06' W 015°24'0 0.0
2018-Apr-15 00:20N 28°06' W 015°24'0 0.0
2018-Apr-14 23:50N 28°06' W 015°24'0 0.0
2018-Apr-14 23:20N 28°06' W 015°24'0 0.0
2018-Apr-14 22:53N 28°06' W 015°24'0 0.0
2018-Apr-14 22:23N 28°06' W 015°24'0 0.0
2018-Apr-14 21:50N 28°06' W 015°24'0 0.6
2018-Apr-14 21:30N 28°06' W 015°23'1 2.7
2018-Apr-14 21:00N 28°07' W 015°22'2 4.0
2018-Apr-14 20:30N 28°05' W 015°21'611.2
2018-Apr-14 20:00N 28°01' W 015°17'511.0
2018-Apr-14 19:30N 27°55' W 015°16'611.4
2018-Apr-14 19:00N 27°50' W 015°16'511.0
2018-Apr-14 18:30N 27°44' W 015°17'510.6
2018-Apr-14 18:00N 27°39' W 015°18'  
Track history (hours):
 
Tides and Currents Weather Stations Pressure Air Temp Water Temp Dewpoint Dewpoint Depression Visibility Wind Speed Wind Dir Waves Ship Positions

Sbi Hercules

Last reported at 2018-Apr-21 00:21 UTC. Time now 2018-Apr-21 15:40 UTC.
Position N 38°28' W 010°07'.

Length 200 m; draft 10.5 m.

Type: Cargo ship. MMSI: 636017382.

Date/timePositionNaut miles runAvg speedWind from/ knotsBaromVisibWave heightAir tempDewpointWater temp
2018-Apr-21 00:21N 38°28' W 010°07'512.8
2018-Apr-20 23:56N 38°33' W 010°09'612.7
2018-Apr-20 23:29N 38°38' W 010°11'612.2
2018-Apr-20 23:00N 38°44' W 010°12'713.0
2018-Apr-20 22:30N 38°51' W 010°12'613.2
2018-Apr-20 22:00N 38°57' W 010°11'713.4
2018-Apr-20 21:30N 39°04' W 010°11'713.5
2018-Apr-20 21:00N 39°11' W 010°11'612.9
2018-Apr-20 20:30N 39°17' W 010°12'  
2018-Apr-17 22:36N 39°51' W 010°54'312.8
2018-Apr-17 22:22N 39°49' W 010°55'612.8
2018-Apr-17 21:55N 39°43' W 010°58'512.7
2018-Apr-17 21:29N 39°38' W 011°00'612.9
2018-Apr-17 21:00N 39°32' W 011°03'612.6
2018-Apr-17 20:30N 39°26' W 011°05'712.4
2018-Apr-17 19:57N 39°19' W 011°08'612.3
2018-Apr-17 19:31N 39°14' W 011°10'612.2
2018-Apr-17 19:00N 39°08' W 011°12'612.4
2018-Apr-17 18:30N 39°02' W 011°15'1312.8
2018-Apr-17 17:28N 38°50' W 011°20'60212.6
2018-Apr-15 17:34N 29°16' W 014°58'111.8
2018-Apr-15 17:30N 29°15' W 014°59'611.7
2018-Apr-15 17:00N 29°10' W 015°00'611.8
2018-Apr-15 16:30N 29°04' W 015°03'611.8
2018-Apr-15 16:00N 28°58' W 015°05'611.9
2018-Apr-15 15:30N 28°53' W 015°06'611.8
2018-Apr-15 14:57N 28°46' W 015°09'512.0
2018-Apr-15 14:30N 28°41' W 015°11'612.0
2018-Apr-15 14:00N 28°36' W 015°13'611.9
2018-Apr-15 13:30N 28°30' W 015°15'612.0
2018-Apr-15 13:00N 28°24' W 015°17'612.0
2018-Apr-15 12:30N 28°19' W 015°19'612.1
2018-Apr-15 12:00N 28°13' W 015°21'611.7
2018-Apr-15 11:31N 28°07' W 015°23'1 2.4
2018-Apr-15 10:56N 28°06' W 015°24'0 0.0
2018-Apr-15 10:26N 28°06' W 015°24'0 0.0
2018-Apr-15 09:56N 28°06' W 015°24'0 0.0
2018-Apr-15 09:26N 28°06' W 015°24'0 0.0
2018-Apr-15 08:56N 28°06' W 015°24'0 0.0
2018-Apr-15 08:26N 28°06' W 015°24'0 0.0
2018-Apr-15 07:59N 28°06' W 015°24'0 0.0
2018-Apr-15 07:29N 28°06' W 015°24'0 0.0
2018-Apr-15 06:59N 28°06' W 015°24'0 0.0
2018-Apr-15 06:29N 28°06' W 015°24'0 0.0
2018-Apr-15 05:59N 28°06' W 015°24'0 0.0
2018-Apr-15 05:14N 28°06' W 015°24'0 0.0
2018-Apr-15 04:59N 28°06' W 015°24'0 0.0
2018-Apr-15 04:29N 28°06' W 015°24'0 0.0
2018-Apr-15 03:59N 28°06' W 015°24'0 0.0
2018-Apr-15 03:29N 28°06' W 015°24'0 0.0
2018-Apr-15 02:59N 28°06' W 015°24'0 0.0
2018-Apr-15 02:29N 28°06' W 015°24'0 0.0
2018-Apr-15 01:59N 28°06' W 015°24'0 0.0
2018-Apr-15 01:29N 28°06' W 015°24'0 0.0
2018-Apr-15 00:50N 28°06' W 015°24'0 0.0
2018-Apr-15 00:20N 28°06' W 015°24'0 0.0
2018-Apr-14 23:50N 28°06' W 015°24'0 0.0
2018-Apr-14 23:20N 28°06' W 015°24'0 0.0
2018-Apr-14 22:53N 28°06' W 015°24'0 0.0
2018-Apr-14 22:23N 28°06' W 015°24'0 0.0
2018-Apr-14 21:50N 28°06' W 015°24'0 0.6
2018-Apr-14 21:30N 28°06' W 015°23'1 2.7
2018-Apr-14 21:00N 28°07' W 015°22'2 4.0
2018-Apr-14 20:30N 28°05' W 015°21'611.2
2018-Apr-14 20:00N 28°01' W 015°17'511.0
2018-Apr-14 19:30N 27°55' W 015°16'611.4
2018-Apr-14 19:00N 27°50' W 015°16'511.0
2018-Apr-14 18:30N 27°44' W 015°17'510.6
2018-Apr-14 18:00N 27°39' W 015°18'  

Dump ship's entire track history